Harpers Crossroads, North Carolina
Current Conditions -  °F | °C
As of 8:55 AM on Monday 24 Nov 2014 (Local Time) from K5W8 Reporting Station
Broken Clouds Broken Clouds  
Wind Chill: 61°   Ceiling: 3100
Heat Index: 61°   Visibility: 10mi
Dew Point: 58°   Wind: 10mph
Humidity: 90%   Direction: 200°SSW
Pressure: 29.83"   Gusts: NA
Location:  35.6078°N, 79.3636°W
Report Text: K5W8 241355Z AUTO 20009KT 10SM BKN031 16/14 A2983 RMK AO2 T01600144
Loading
Personal Weather Stations






























Interactive Weather Map New forecast layout! Learn more

10-Day Weather Forecast

Advertisements
Track Severe Weather on mobile